Time;durP1;ratioP1;P1;durP2;ratioP2;P2;SDS_P1;SDS_P2;PMS_P1;PMS_P2;Temp;Humidity;BMP_temperature;BMP_pressure;BME280_temperature;BME280_humidity;BME280_pressure;Samples;Min_cycle;Max_cycle;Signal;HPM_P1;HPM_P2
2022/09/11 00:01:12;;;;;;;294.38;23.83;;;13.40;99.90;;;;;;5074777;28;20064;-80
2022/09/11 00:03:39;;;;;;;235.77;21.17;;;13.30;99.90;;;;;;5074517;28;20441;-80
2022/09/11 00:06:09;;;;;;;250.23;25.40;;;13.30;99.90;;;;;;5074563;28;20036;-81
2022/09/11 00:08:36;;;;;;;56.15;15.05;;;13.20;99.90;;;;;;5092610;28;20064;-80
2022/09/11 00:11:10;;;;;;;489.20;43.28;;;13.20;99.90;;;;;;5074889;28;20365;-81
2022/09/11 00:13:38;;;;;;;561.08;49.10;;;13.20;99.90;;;;;;5092306;28;20051;-81
2022/09/11 00:16:07;;;;;;;119.45;18.98;;;13.10;99.90;;;;;;5074484;28;20040;-80
2022/09/11 00:18:36;;;;;;;62.22;14.38;;;13.10;99.90;;;;;;5092384;28;20040;-80
2022/09/11 00:21:04;;;;;;;24.75;15.00;;;13.00;99.90;;;;;;5092480;28;20332;-79
2022/09/11 00:23:30;;;;;;;29.23;7.15;;;13.00;99.90;;;;;;5074327;28;20445;-80
2022/09/11 00:26:02;;;;;;;24.15;14.02;;;13.00;99.90;;;;;;5092271;28;20044;-80
2022/09/11 00:28:29;;;;;;;24.33;15.55;;;12.90;99.90;;;;;;5074325;28;20127;-80
2022/09/11 00:31:01;;;;;;;15.68;10.52;;;12.90;99.90;;;;;;5074657;28;20352;-79
2022/09/11 00:33:28;;;;;;;17.10;11.88;;;12.90;99.90;;;;;;5057794;28;20042;-80
2022/09/11 00:35:57;;;;;;;26.52;17.50;;;12.90;99.90;;;;;;5074390;28;20044;-80
2022/09/11 00:38:28;;;;;;;24.07;15.97;;;12.80;99.90;;;;;;5074413;28;20078;-81
2022/09/11 00:40:56;;;;;;;24.75;14.80;;;12.80;99.90;;;;;;5091781;28;20674;-80
2022/09/11 00:43:23;;;;;;;382.38;35.33;;;12.80;99.90;;;;;;5092072;28;20048;-80
2022/09/11 00:45:56;;;;;;;11.43;5.65;;;12.80;99.90;;;;;;5074239;28;20044;-80
2022/09/11 00:48:25;;;;;;;35.38;8.43;;;12.80;99.90;;;;;;5092770;28;20695;-80
2022/09/11 00:50:54;;;;;;;14.75;8.73;;;12.70;99.90;;;;;;5077937;28;20360;-80
2022/09/11 00:53:24;;;;;;;21.50;12.73;;;12.60;99.90;;;;;;5077967;28;20051;-80
2022/09/11 00:55:58;;;;;;;19.20;13.48;;;12.60;99.90;;;;;;5078096;28;20748;-81
2022/09/11 00:58:30;;;;;;;22.30;12.73;;;12.60;99.90;;;;;;5095707;28;20126;-79
2022/09/11 01:00:56;;;;;;;198.27;30.35;;;12.60;99.90;;;;;;5077624;28;20047;-80
2022/09/11 01:03:23;;;;;;;41.05;14.80;;;12.60;99.90;;;;;;5095295;28;20066;-80
2022/09/11 01:05:51;;;;;;;35.55;19.63;;;12.60;99.90;;;;;;5095731;28;20054;-80
2022/09/11 01:08:19;;;;;;;30.83;18.65;;;12.50;99.90;;;;;;5095427;28;20040;-79
2022/09/11 01:10:51;;;;;;;27.00;13.60;;;12.50;99.90;;;;;;5077658;28;20044;-81
2022/09/11 01:13:26;;;;;;;279.98;32.95;;;12.50;99.90;;;;;;5095366;28;20059;-79
2022/09/11 01:16:15;;;;;;;463.20;39.47;;;12.50;99.90;;;;;;5060875;28;20457;-79
2022/09/11 01:19:12;;;;;;;535.45;44.47;;;12.50;99.90;;;;;;5077162;28;20048;-79
2022/09/11 01:21:56;;;;;;;633.85;51.08;;;12.50;99.90;;;;;;5077433;28;20040;-80
2022/09/11 01:24:36;;;;;;;319.35;38.45;;;12.40;99.90;;;;;;5076892;28;20050;-79
2022/09/11 01:27:05;;;;;;;376.98;35.85;;;12.40;99.90;;;;;;5077322;28;20104;-80
2022/09/11 01:29:50;;;;;;;250.60;27.50;;;12.40;99.90;;;;;;5077240;28;20094;-80
2022/09/11 01:32:26;;;;;;;400.85;33.75;;;12.40;99.90;;;;;;5077295;28;20066;-81
2022/09/11 01:35:32;;;;;;;107.30;17.10;;;12.30;99.90;;;;;;5076920;28;20127;-79
2022/09/11 01:38:08;;;;;;;500.10;44.03;;;12.30;99.90;;;;;;5094818;28;20048;-79
2022/09/11 01:40:58;;;;;;;167.55;28.10;;;12.30;99.90;;;;;;5076785;28;20051;-81
2022/09/11 01:43:34;;;;;;;165.05;18.25;;;12.30;99.90;;;;;;5076538;28;20052;-79
2022/09/11 01:46:04;;;;;;;100.20;23.45;;;12.30;99.90;;;;;;5094831;28;20044;-80
2022/09/11 01:48:46;;;;;;;25.85;14.45;;;12.30;99.90;;;;;;5074545;28;20423;-80
2022/09/11 01:51:21;;;;;;;19.33;12.93;;;12.20;99.90;;;;;;5094769;28;20058;-80
2022/09/11 01:53:50;;;;;;;19.92;12.52;;;12.20;99.90;;;;;;5076862;28;20123;-79
2022/09/11 01:56:32;;;;;;;15.73;10.52;;;12.20;99.90;;;;;;5076963;28;20039;-79
2022/09/11 01:59:05;;;;;;;14.95;10.73;;;12.30;99.90;;;;;;5094214;28;20040;-79
2022/09/11 02:01:34;;;;;;;48.65;16.55;;;12.20;99.90;;;;;;5094477;28;20434;-80
2022/09/11 02:04:39;;;;;;;41.47;18.73;;;12.20;99.90;;;;;;5076719;28;20034;-79
2022/09/11 02:07:24;;;;;;;25.20;14.90;;;12.20;99.90;;;;;;5031809;28;20056;-79
2022/09/11 02:09:58;;;;;;;96.10;15.75;;;12.20;99.90;;;;;;5091220;28;20052;-79
2022/09/11 02:12:30;;;;;;;90.25;15.43;;;12.20;99.90;;;;;;5094399;28;20117;-80
2022/09/11 02:14:56;;;;;;;16.13;12.00;;;12.20;99.90;;;;;;5093913;28;20441;-80
2022/09/11 02:17:24;;;;;;;325.70;33.53;;;12.20;99.90;;;;;;5076220;28;20047;-79
2022/09/11 02:19:53;;;;;;;138.55;26.00;;;12.10;99.90;;;;;;5076472;28;20060;-79
2022/09/11 02:22:19;;;;;;;42.67;16.58;;;12.10;99.90;;;;;;5076380;28;20073;-79
2022/09/11 02:24:45;;;;;;;19.95;11.35;;;12.00;99.90;;;;;;5076196;28;20115;-80
2022/09/11 02:27:16;;;;;;;24.60;13.25;;;12.00;99.90;;;;;;5093622;28;20043;-79
2022/09/11 02:29:42;;;;;;;53.72;18.67;;;12.00;99.90;;;;;;5093980;28;20170;-79
2022/09/11 02:32:09;;;;;;;32.78;13.23;;;11.90;99.90;;;;;;5059646;28;20445;-79
2022/09/11 02:34:37;;;;;;;310.45;26.60;;;11.90;99.90;;;;;;5075791;28;20109;-80
2022/09/11 02:37:33;;;;;;;447.70;47.92;;;11.90;99.90;;;;;;5093876;28;20094;-81
2022/09/11 02:40:06;;;;;;;543.05;48.55;;;11.80;99.90;;;;;;5093684;28;20047;-79
2022/09/11 02:42:49;;;;;;;379.52;33.83;;;11.80;99.90;;;;;;5093933;28;20346;-79
2022/09/11 02:45:27;;;;;;;421.15;40.45;;;11.80;99.90;;;;;;5094371;28;20550;-79
2022/09/11 02:48:16;;;;;;;285.50;28.95;;;11.80;99.90;;;;;;5093420;28;20146;-80
2022/09/11 02:50:59;;;;;;;161.23;19.58;;;11.80;99.90;;;;;;5075195;28;20048;-80
2022/09/11 02:53:41;;;;;;;305.52;34.85;;;11.70;99.90;;;;;;5075616;28;20048;-79
2022/09/11 02:56:15;;;;;;;80.95;13.10;;;11.70;99.90;;;;;;5075591;28;20051;-79
2022/09/11 02:58:57;;;;;;;135.07;21.38;;;11.60;99.90;;;;;;5093140;28;20473;-79
2022/09/11 03:01:23;;;;;;;404.27;39.08;;;11.60;99.90;;;;;;5093122;28;20035;-79
2022/09/11 03:03:49;;;;;;;269.75;33.53;;;11.60;99.90;;;;;;5093303;28;20047;-80
2022/09/11 03:06:19;;;;;;;403.52;42.47;;;11.60;99.90;;;;;;5093295;28;20165;-79
2022/09/11 03:08:45;;;;;;;485.92;45.67;;;11.50;99.90;;;;;;5093286;28;20039;-80
2022/09/11 03:11:14;;;;;;;513.00;49.10;;;11.50;99.90;;;;;;5092530;28;20117;-79
2022/09/11 03:13:40;;;;;;;398.10;34.67;;;11.50;99.90;;;;;;5093105;28;20349;-79
2022/09/11 03:16:06;;;;;;;511.38;48.15;;;11.40;99.90;;;;;;5075265;28;20403;-80
2022/09/11 03:18:32;;;;;;;312.30;32.17;;;11.40;99.90;;;;;;5093195;28;20055;-79
2022/09/11 03:20:59;;;;;;;236.05;30.33;;;11.40;99.90;;;;;;5093038;28;20047;-80
2022/09/11 03:23:26;;;;;;;42.42;12.55;;;11.30;99.90;;;;;;5075219;28;20052;-79
2022/09/11 03:25:52;;;;;;;15.48;11.90;;;11.30;99.90;;;;;;5075343;28;20044;-80
2022/09/11 03:28:17;;;;;;;46.03;15.82;;;11.40;99.90;;;;;;5075246;28;20082;-80
2022/09/11 03:30:43;;;;;;;30.00;16.27;;;11.30;99.90;;;;;;5075193;28;20052;-80
2022/09/11 03:33:10;;;;;;;568.42;48.25;;;11.40;99.90;;;;;;5074987;28;20456;-79
2022/09/11 03:35:36;;;;;;;493.02;41.55;;;11.40;99.90;;;;;;5074877;28;20036;-79
2022/09/11 03:38:02;;;;;;;341.25;39.83;;;11.30;99.90;;;;;;5074557;28;20051;-79
2022/09/11 03:40:27;;;;;;;56.05;14.30;;;11.30;99.90;;;;;;5074764;28;20048;-79
2022/09/11 03:42:53;;;;;;;61.33;14.13;;;11.20;99.90;;;;;;5092704;28;20031;-80
2022/09/11 03:45:20;;;;;;;36.65;10.50;;;11.20;99.90;;;;;;5075124;28;20058;-80
2022/09/11 03:47:46;;;;;;;16.98;10.00;;;11.10;99.90;;;;;;5074526;28;20050;-79
2022/09/11 03:50:12;;;;;;;143.98;21.42;;;11.10;99.90;;;;;;5074939;28;20059;-79
2022/09/11 03:52:38;;;;;;;149.52;20.95;;;11.00;99.90;;;;;;5092351;28;20033;-79
2022/09/11 03:55:05;;;;;;;15.52;10.57;;;11.00;99.90;;;;;;5074957;28;20044;-79
2022/09/11 03:57:35;;;;;;;12.75;9.57;;;11.00;99.90;;;;;;5074915;28;20095;-79
2022/09/11 04:00:02;;;;;;;26.48;13.05;;;10.90;99.90;;;;;;5074794;28;20051;-80
2022/09/11 04:02:28;;;;;;;63.05;15.85;;;10.90;99.90;;;;;;5092501;28;20081;-78
2022/09/11 04:04:54;;;;;;;25.50;11.57;;;10.90;99.90;;;;;;5092445;28;20121;-80
2022/09/11 04:07:21;;;;;;;44.65;12.23;;;11.00;99.90;;;;;;5092383;28;20458;-80
2022/09/11 04:09:47;;;;;;;28.90;15.82;;;11.00;99.90;;;;;;5074681;28;20032;-79
2022/09/11 04:12:12;;;;;;;25.92;14.45;;;11.00;99.90;;;;;;5092470;28;20109;-79
2022/09/11 04:14:38;;;;;;;27.10;16.15;;;11.10;99.90;;;;;;5092365;28;20383;-80
2022/09/11 04:17:06;;;;;;;16.80;11.95;;;11.10;99.90;;;;;;5074315;28;20076;-79
2022/09/11 04:19:33;;;;;;;15.93;11.90;;;11.10;99.90;;;;;;5092417;28;20051;-79
2022/09/11 04:21:59;;;;;;;15.82;11.25;;;11.10;99.90;;;;;;5075328;28;20243;-79
2022/09/11 04:24:25;;;;;;;13.43;10.65;;;11.10;99.90;;;;;;5078600;28;20381;-79
2022/09/11 04:26:51;;;;;;;280.98;33.40;;;11.20;99.90;;;;;;5096260;28;20035;-80
2022/09/11 04:29:17;;;;;;;200.02;33.35;;;11.20;99.90;;;;;;5078164;28;20044;-79
2022/09/11 04:31:43;;;;;;;86.82;22.67;;;11.20;99.90;;;;;;5061871;28;20081;-80
2022/09/11 04:34:10;;;;;;;73.18;8.88;;;11.20;99.90;;;;;;5078021;28;20077;-79
2022/09/11 04:36:36;;;;;;;166.15;14.43;;;11.10;99.90;;;;;;5096050;28;20058;-80
2022/09/11 04:39:01;;;;;;;330.20;28.27;;;11.10;99.90;;;;;;5096303;28;20329;-78
2022/09/11 04:41:27;;;;;;;314.95;26.40;;;11.10;99.90;;;;;;5096107;28;20197;-79
2022/09/11 04:43:55;;;;;;;281.38;25.95;;;11.00;99.90;;;;;;5078071;28;20043;-77
2022/09/11 04:46:22;;;;;;;142.27;20.08;;;11.10;99.90;;;;;;5078102;28;20044;-78
2022/09/11 04:48:54;;;;;;;27.60;11.23;;;11.00;99.90;;;;;;5077799;28;20303;-78
2022/09/11 04:51:23;;;;;;;9.68;7.13;;;11.00;99.90;;;;;;5078167;28;20357;-78
2022/09/11 04:53:49;;;;;;;21.52;11.82;;;11.00;99.90;;;;;;5077973;28;20039;-79
2022/09/11 04:56:15;;;;;;;16.85;10.85;;;11.00;99.90;;;;;;5078043;28;20039;-79
2022/09/11 04:58:42;;;;;;;21.27;11.77;;;11.00;99.90;;;;;;5061139;28;20044;-80
2022/09/11 05:01:10;;;;;;;14.82;9.82;;;11.00;99.90;;;;;;5061874;28;20051;-80
2022/09/11 05:03:36;;;;;;;14.15;10.43;;;11.00;99.90;;;;;;5095730;28;20044;-78
2022/09/11 05:06:06;;;;;;;48.53;18.73;;;11.00;99.90;;;;;;5077320;28;20452;-80
2022/09/11 05:08:32;;;;;;;18.42;12.65;;;11.00;99.90;;;;;;5077823;28;20046;-79
2022/09/11 05:10:59;;;;;;;15.98;11.75;;;11.00;99.90;;;;;;5077800;28;20072;-78
2022/09/11 05:13:26;;;;;;;19.10;11.35;;;11.00;99.90;;;;;;5077334;28;20047;-79
2022/09/11 05:15:51;;;;;;;83.93;16.15;;;11.00;99.90;;;;;;5077589;28;20051;-79
2022/09/11 05:18:18;;;;;;;201.13;29.42;;;11.00;99.90;;;;;;5077578;28;20036;-79
2022/09/11 05:20:43;;;;;;;444.90;45.65;;;11.00;99.90;;;;;;5094980;28;20039;-78
2022/09/11 05:23:12;;;;;;;450.60;52.60;;;11.00;99.90;;;;;;5095257;28;20108;-78
2022/09/11 05:25:38;;;;;;;171.45;24.63;;;11.00;99.90;;;;;;5077383;28;20036;-79
2022/09/11 05:28:05;;;;;;;191.55;33.22;;;11.00;99.90;;;;;;5077384;28;20468;-78
2022/09/11 05:30:30;;;;;;;197.77;29.30;;;11.00;99.90;;;;;;5094561;28;20036;-78
2022/09/11 05:32:56;;;;;;;71.32;19.50;;;10.90;99.90;;;;;;5077095;28;20058;-79
2022/09/11 05:35:25;;;;;;;21.85;13.32;;;10.90;99.90;;;;;;5094010;28;20048;-79
2022/09/11 05:37:51;;;;;;;135.07;21.98;;;11.00;99.90;;;;;;5076751;28;20074;-78
2022/09/11 05:40:16;;;;;;;72.68;14.60;;;11.00;99.90;;;;;;5077117;28;20044;-79
2022/09/11 05:42:42;;;;;;;73.30;20.55;;;11.00;99.90;;;;;;5077178;28;20043;-79
2022/09/11 05:45:08;;;;;;;33.83;12.23;;;11.10;99.90;;;;;;5076649;28;20047;-79
2022/09/11 05:47:34;;;;;;;107.00;25.38;;;11.10;99.90;;;;;;5076801;28;20086;-79
2022/09/11 05:50:00;;;;;;;157.55;32.45;;;11.20;99.90;;;;;;5094837;28;20044;-79
2022/09/11 05:52:28;;;;;;;114.93;26.65;;;11.20;99.90;;;;;;5076838;28;20445;-80
2022/09/11 05:54:55;;;;;;;59.53;19.58;;;11.30;99.90;;;;;;5094518;28;20572;-78
2022/09/11 05:57:21;;;;;;;128.15;30.58;;;11.40;99.90;;;;;;5076903;28;20115;-78
2022/09/11 05:59:47;;;;;;;169.40;26.25;;;11.50;99.90;;;;;;5094568;28;20083;-78
2022/09/11 06:02:13;;;;;;;43.67;13.77;;;11.50;99.90;;;;;;5076275;28;20072;-80
2022/09/11 06:04:38;;;;;;;107.05;21.90;;;11.50;99.90;;;;;;5094406;28;20044;-79
2022/09/11 06:07:04;;;;;;;73.35;16.23;;;11.60;99.90;;;;;;5060057;28;20100;-78
2022/09/11 06:09:30;;;;;;;218.93;32.92;;;11.70;99.90;;;;;;5076316;28;20127;-78
2022/09/11 06:11:55;;;;;;;67.47;16.48;;;11.80;99.90;;;;;;5076459;28;20442;-78
2022/09/11 06:14:21;;;;;;;71.70;17.52;;;11.90;99.90;;;;;;5094148;28;20055;-78
2022/09/11 06:16:47;;;;;;;96.90;26.10;;;12.00;99.90;;;;;;5076521;28;20111;-79
2022/09/11 06:19:13;;;;;;;60.13;18.95;;;12.20;99.90;;;;;;5076318;28;20044;-78
2022/09/11 06:21:39;;;;;;;62.28;15.05;;;12.40;99.90;;;;;;5094113;28;20396;-79
2022/09/11 06:24:05;;;;;;;31.60;10.57;;;12.80;99.90;;;;;;5075944;28;20460;-78
2022/09/11 06:26:31;;;;;;;27.70;8.98;;;13.20;99.90;;;;;;5093952;28;20055;-79
2022/09/11 06:28:57;;;;;;;36.85;11.38;;;13.50;99.90;;;;;;5076245;28;20343;-78
2022/09/11 06:31:25;;;;;;;8.65;6.70;;;13.90;99.90;;;;;;5093663;28;20058;-80
2022/09/11 06:33:51;;;;;;;8.95;7.40;;;14.20;99.90;;;;;;5093618;28;20434;-79
2022/09/11 06:36:20;;;;;;;7.97;7.18;;;14.40;99.90;;;;;;5093796;28;20333;-79
2022/09/11 06:38:50;;;;;;;6.88;6.18;;;14.60;99.90;;;;;;5076211;28;20044;-80
2022/09/11 06:41:17;;;;;;;6.00;5.20;;;14.90;99.90;;;;;;5093738;28;20058;-80
2022/09/11 06:43:45;;;;;;;6.90;6.22;;;15.30;99.90;;;;;;5077859;28;20043;-81
2022/09/11 06:46:16;;;;;;;7.75;7.03;;;15.40;99.90;;;;;;5097125;28;20039;-81
2022/09/11 06:48:45;;;;;;;9.48;7.53;;;15.50;99.90;;;;;;5058820;28;20400;-80
2022/09/11 06:51:14;;;;;;;10.98;9.52;;;15.60;99.90;;;;;;5087819;28;20361;-81
2022/09/11 06:53:41;;;;;;;12.02;9.32;;;15.80;99.90;;;;;;5055295;28;20047;-80
2022/09/11 06:56:11;;;;;;;13.35;10.95;;;15.80;99.90;;;;;;5057011;28;20051;-79
2022/09/11 06:58:38;;;;;;;16.20;12.85;;;15.80;99.90;;;;;;5092074;28;20036;-81
2022/09/11 07:01:13;;;;;;;10.52;9.43;;;15.80;99.90;;;;;;5092863;28;20042;-80
2022/09/11 07:03:46;;;;;;;13.13;11.73;;;15.70;99.90;;;;;;5093160;28;20126;-79
2022/09/11 07:06:18;;;;;;;17.65;13.48;;;15.70;99.90;;;;;;5075378;28;20075;-81
2022/09/11 07:08:51;;;;;;;14.23;12.70;;;15.70;99.90;;;;;;5075088;28;20361;-81
2022/09/11 07:11:17;;;;;;;14.88;13.25;;;15.70;99.90;;;;;;5053167;28;20045;-81
2022/09/11 07:13:43;;;;;;;18.30;13.38;;;15.70;99.90;;;;;;5051850;28;20083;-80
2022/09/11 07:16:11;;;;;;;17.95;14.93;;;15.80;99.90;;;;;;5051794;28;20444;-80
2022/09/11 07:18:39;;;;;;;14.70;11.82;;;15.80;99.90;;;;;;5051818;28;20052;-81
2022/09/11 07:21:06;;;;;;;16.88;14.57;;;15.80;99.90;;;;;;5051348;28;20041;-80
2022/09/11 07:23:35;;;;;;;20.48;17.42;;;15.80;99.90;;;;;;5051508;28;20045;-79
2022/09/11 07:26:03;;;;;;;19.30;15.68;;;15.80;99.90;;;;;;5051763;28;20048;-80
2022/09/11 07:28:29;;;;;;;13.98;12.57;;;15.90;99.90;;;;;;5035112;28;20358;-78
2022/09/11 07:31:12;;;;;;;14.77;13.25;;;16.00;99.90;;;;;;5052611;28;20036;-78
2022/09/11 07:33:41;;;;;;;15.75;13.57;;;16.10;99.90;;;;;;5056416;28;20044;-78
2022/09/11 07:36:15;;;;;;;21.67;16.98;;;16.10;99.90;;;;;;5075069;28;20036;-79
2022/09/11 07:38:43;;;;;;;12.98;11.68;;;16.30;99.90;;;;;;5091858;28;20043;-78
2022/09/11 07:41:10;;;;;;;16.88;14.95;;;16.40;99.90;;;;;;5092739;28;20047;-78
2022/09/11 07:43:40;;;;;;;17.83;15.40;;;16.50;99.90;;;;;;5075035;28;20476;-80
2022/09/11 07:46:08;;;;;;;20.80;16.83;;;16.60;99.90;;;;;;5092459;28;20421;-80
2022/09/11 07:48:35;;;;;;;14.63;13.02;;;16.70;99.90;;;;;;5092261;28;20055;-77
2022/09/11 07:51:05;;;;;;;18.10;14.80;;;16.90;99.90;;;;;;5074892;28;20125;-79
2022/09/11 07:53:33;;;;;;;16.92;15.15;;;17.00;99.90;;;;;;5074387;28;20446;-79
2022/09/11 07:56:09;;;;;;;15.25;13.23;;;17.10;99.90;;;;;;5092562;28;20040;-79
2022/09/11 07:58:39;;;;;;;14.90;12.02;;;17.20;99.90;;;;;;5091645;28;20352;-79
2022/09/11 08:01:09;;;;;;;14.38;12.77;;;17.40;99.90;;;;;;5088855;28;20097;-80
2022/09/11 08:03:36;;;;;;;14.05;12.07;;;17.50;99.90;;;;;;5092037;28;20036;-80
2022/09/11 08:06:08;;;;;;;14.23;12.73;;;17.60;99.90;;;;;;5074496;28;20113;-79
2022/09/11 08:08:36;;;;;;;14.50;12.98;;;17.80;99.90;;;;;;5074658;28;20676;-79
2022/09/11 08:11:09;;;;;;;13.02;10.20;;;18.00;99.90;;;;;;5074456;28;20087;-80
2022/09/11 08:13:35;;;;;;;11.93;10.63;;;18.30;99.90;;;;;;5092026;28;20126;-79
2022/09/11 08:16:02;;;;;;;12.13;10.63;;;18.50;99.90;;;;;;5092152;28;20063;-80
2022/09/11 08:18:28;;;;;;;12.63;9.02;;;18.70;99.90;;;;;;5092223;28;20407;-81
2022/09/11 08:21:09;;;;;;;11.63;9.45;;;18.90;99.90;;;;;;5074678;28;20119;-79
2022/09/11 08:23:39;;;;;;;14.23;9.15;;;19.40;99.90;;;;;;5074489;28;20044;-81
2022/09/11 08:26:06;;;;;;;10.63;8.40;;;20.10;99.90;;;;;;5092330;28;20191;-80
2022/09/11 08:28:37;;;;;;;10.02;7.65;;;20.70;99.90;;;;;;5057591;28;20364;-80
2022/09/11 08:31:04;;;;;;;8.18;7.25;;;21.30;99.90;;;;;;5092106;28;20044;-79
2022/09/11 08:33:32;;;;;;;6.70;6.00;;;21.80;99.90;;;;;;5073409;28;20047;-81
2022/09/11 08:35:58;;;;;;;5.65;3.97;;;22.30;99.90;;;;;;5074301;28;20389;-81
2022/09/11 08:38:26;;;;;;;5.55;3.15;;;22.80;99.90;;;;;;5091489;28;20036;-80
2022/09/11 08:40:53;;;;;;;6.75;4.15;;;23.20;99.90;;;;;;5092005;28;20048;-81
2022/09/11 08:43:32;;;;;;;8.05;3.70;;;23.30;99.90;;;;;;5092194;28;20455;-81
2022/09/11 08:46:03;;;;;;;7.30;4.57;;;23.60;99.90;;;;;;5092088;28;20063;-81
2022/09/11 08:49:05;;;;;;;3.97;2.58;;;23.70;99.90;;;;;;5073942;28;20056;-80
2022/09/11 08:51:31;;;;;;;4.88;2.50;;;24.00;99.90;;;;;;5073817;28;20130;-83
2022/09/11 08:54:01;;;;;;;6.35;2.60;;;24.30;99.90;;;;;;5091881;28;20122;-83
2022/09/11 08:56:29;;;;;;;3.58;2.38;;;24.50;99.90;;;;;;5091975;28;20124;-82
2022/09/11 08:59:01;;;;;;;3.95;2.28;;;24.30;99.90;;;;;;5073909;28;20123;-83
2022/09/11 09:01:53;;;;;;;4.85;2.75;;;23.70;99.90;;;;;;5073845;28;20044;-82
2022/09/11 09:04:53;;;;;;;4.20;2.70;;;23.00;99.90;;;;;;5073160;28;20048;-81
2022/09/11 09:07:37;;;;;;;5.55;2.42;;;22.60;99.90;;;;;;5091810;28;20047;-80
2022/09/11 09:10:28;;;;;;;4.72;2.53;;;23.30;99.90;;;;;;5094266;28;20060;-81
2022/09/11 09:13:02;;;;;;;4.90;2.55;;;23.90;99.90;;;;;;5057725;28;20055;-82
2022/09/11 09:15:50;;;;;;;3.83;2.30;;;24.70;99.90;;;;;;5057204;28;20346;-81
2022/09/11 09:18:40;;;;;;;4.15;2.25;;;25.30;99.90;;;;;;5040664;28;20048;-80
2022/09/11 09:21:23;;;;;;;4.38;1.98;;;25.60;99.90;;;;;;5057285;28;20056;-81
2022/09/11 09:23:56;;;;;;;4.43;2.40;;;25.20;99.90;;;;;;5056793;28;20040;-83
2022/09/11 09:26:28;;;;;;;4.82;2.33;;;24.60;99.90;;;;;;5057102;28;20052;-81
2022/09/11 09:28:58;;;;;;;4.30;2.20;;;24.50;99.90;;;;;;5040537;28;20470;-82
2022/09/11 09:31:28;;;;;;;6.47;2.40;;;25.00;99.90;;;;;;5040506;28;20059;-82
2022/09/11 09:34:17;;;;;;;4.72;2.05;;;25.60;99.90;;;;;;5074675;28;20116;-81
2022/09/11 09:36:57;;;;;;;3.95;1.95;;;26.00;99.90;;;;;;5056604;28;20384;-81
2022/09/11 09:39:24;;;;;;;3.85;1.90;;;26.30;99.90;;;;;;5057147;28;20040;-82
2022/09/11 09:42:19;;;;;;;4.35;2.40;;;26.50;99.90;;;;;;5057132;28;20040;-82
2022/09/11 09:44:56;;;;;;;4.82;1.90;;;26.70;99.70;;;;;;5055383;28;20074;-82
2022/09/11 09:47:22;;;;;;;3.42;1.67;;;26.90;99.40;;;;;;5071759;28;20090;-81
2022/09/11 09:49:50;;;;;;;4.22;2.03;;;27.00;99.30;;;;;;5094561;28;20052;-84
2022/09/11 09:52:32;;;;;;;5.78;1.92;;;27.20;98.60;;;;;;5094636;28;20051;-83
2022/09/11 09:55:04;;;;;;;3.55;1.35;;;27.60;96.30;;;;;;5076590;28;20036;-83
2022/09/11 09:57:38;;;;;;;2.85;1.10;;;27.60;96.00;;;;;;5076443;28;20040;-82
2022/09/11 10:00:10;;;;;;;3.55;1.08;;;27.50;94.30;;;;;;5076757;28;20082;-81
2022/09/11 10:02:42;;;;;;;3.72;1.63;;;27.40;94.50;;;;;;5076388;28;20523;-81
2022/09/11 10:05:23;;;;;;;2.63;1.48;;;27.80;93.90;;;;;;5076737;28;20353;-82
2022/09/11 10:07:58;;;;;;;3.28;1.50;;;28.30;93.50;;;;;;5094178;28;20465;-83
2022/09/11 10:10:27;;;;;;;3.72;1.63;;;28.60;91.60;;;;;;5093921;28;20535;-82
2022/09/11 10:13:23;;;;;;;3.83;1.20;;;28.70;90.80;;;;;;5076130;28;20055;-82
2022/09/11 10:15:52;;;;;;;2.60;1.45;;;28.70;91.50;;;;;;5075126;28;20087;-80
2022/09/11 10:18:31;;;;;;;2.95;1.40;;;28.50;89.60;;;;;;5094170;28;20039;-80
2022/09/11 10:21:11;;;;;;;4.65;1.70;;;28.30;90.20;;;;;;5093636;28;20052;-80
2022/09/11 10:24:09;;;;;;;4.75;1.38;;;27.50;90.10;;;;;;5094029;28;20048;-81
2022/09/11 10:26:44;;;;;;;4.32;1.35;;;26.20;91.10;;;;;;5072418;28;20105;-81
2022/09/11 10:29:15;;;;;;;3.88;1.20;;;25.10;91.90;;;;;;5093612;28;20490;-81
2022/09/11 10:31:48;;;;;;;4.50;1.65;;;24.40;93.80;;;;;;5093619;28;20438;-83
2022/09/11 10:34:18;;;;;;;4.13;1.80;;;23.80;94.50;;;;;;5093882;28;20122;-81
2022/09/11 10:37:14;;;;;;;3.75;1.42;;;23.30;95.30;;;;;;5059280;28;20047;-81
2022/09/11 10:39:42;;;;;;;3.92;1.40;;;22.90;96.70;;;;;;5062835;28;20200;-82
2022/09/11 10:42:15;;;;;;;4.03;1.40;;;22.60;97.80;;;;;;5075594;28;20197;-81
2022/09/11 10:44:44;;;;;;;3.05;1.50;;;22.30;98.40;;;;;;5093404;28;20459;-83
2022/09/11 10:47:22;;;;;;;5.90;2.33;;;22.30;99.50;;;;;;5080062;28;20084;-82
2022/09/11 10:49:48;;;;;;;3.40;1.83;;;22.60;99.90;;;;;;5038336;28;20608;-82
2022/09/11 10:52:14;;;;;;;5.20;1.40;;;23.60;99.90;;;;;;5055789;28;20040;-82
2022/09/11 10:54:56;;;;;;;3.78;1.70;;;24.50;97.40;;;;;;5038829;28;20050;-82
2022/09/11 10:57:44;;;;;;;4.35;1.83;;;25.30;95.40;;;;;;5073162;28;20404;-82
2022/09/11 11:00:26;;;;;;;5.00;1.73;;;26.00;93.60;;;;;;5055364;28;20036;-82
2022/09/11 11:02:53;;;;;;;2.97;1.33;;;26.20;94.10;;;;;;5055510;28;20131;-82
2022/09/11 11:05:31;;;;;;;2.88;1.83;;;26.50;92.20;;;;;;5055566;28;20475;-81
2022/09/11 11:07:56;;;;;;;3.40;1.55;;;26.50;90.60;;;;;;5055283;28;20048;-83
2022/09/11 11:10:52;;;;;;;3.42;1.40;;;26.50;90.50;;;;;;5055126;28;20358;-83
2022/09/11 11:13:24;;;;;;;5.15;1.63;;;26.70;92.20;;;;;;5055349;28;20505;-82
2022/09/11 11:16:14;;;;;;;3.28;1.75;;;26.80;91.20;;;;;;5072910;28;20052;-83
2022/09/11 11:18:57;;;;;;;2.53;1.40;;;27.00;91.10;;;;;;5072804;28;20384;-83
2022/09/11 11:21:43;;;;;;;2.75;1.38;;;26.80;91.90;;;;;;5055346;28;20408;-82
2022/09/11 11:24:28;;;;;;;2.90;1.13;;;26.70;91.80;;;;;;5055008;28;20044;-82
2022/09/11 11:27:39;;;;;;;2.67;1.45;;;26.70;91.30;;;;;;5055246;28;20067;-82
2022/09/11 11:30:19;;;;;;;3.83;1.38;;;26.60;91.30;;;;;;5054698;28;20044;-82
2022/09/11 11:33:30;;;;;;;3.17;1.30;;;26.70;90.30;;;;;;5054538;28;20073;-82
2022/09/11 11:36:02;;;;;;;2.72;1.20;;;26.90;91.60;;;;;;5055071;28;20420;-83
2022/09/11 11:38:50;;;;;;;2.15;1.02;;;27.10;90.90;;;;;;5088166;28;20052;-82
2022/09/11 11:41:21;;;;;;;3.28;1.08;;;26.60;88.00;;;;;;5060427;28;20043;-82
2022/09/11 11:43:51;;;;;;;4.00;1.40;;;25.90;88.90;;;;;;5051373;28;20037;-81
2022/09/11 11:46:29;;;;;;;4.05;1.00;;;25.60;90.40;;;;;;5043772;28;20047;-81
2022/09/11 11:49:09;;;;;;;3.45;1.08;;;25.90;89.40;;;;;;5092288;28;20039;-83
2022/09/11 11:52:08;;;;;;;2.78;1.00;;;26.10;88.70;;;;;;5092613;28;20056;-80
2022/09/11 11:54:44;;;;;;;3.63;1.30;;;26.00;90.00;;;;;;5056816;28;20044;-81
2022/09/11 11:57:30;;;;;;;2.90;1.40;;;26.10;90.30;;;;;;5092433;28;20044;-80
2022/09/11 12:00:06;;;;;;;3.42;1.40;;;25.70;89.50;;;;;;5092540;28;20048;-80
2022/09/11 12:02:35;;;;;;;3.22;1.48;;;25.20;89.50;;;;;;5074834;28;20109;-82
2022/09/11 12:05:29;;;;;;;2.58;1.08;;;24.60;90.40;;;;;;5057749;28;20067;-89
2022/09/11 12:07:55;;;;;;;6.60;1.45;;;24.40;91.70;;;;;;5057532;28;20127;-82
2022/09/11 12:10:30;;;;;;;4.85;1.33;;;24.30;92.50;;;;;;5074723;28;20044;-82
2022/09/11 12:13:00;;;;;;;1.85;0.85;;;24.00;93.60;;;;;;5074749;28;20051;-83
2022/09/11 12:15:30;;;;;;;2.17;0.80;;;24.10;92.30;;;;;;5074364;28;20536;-82
2022/09/11 12:18:05;;;;;;;3.70;1.55;;;24.10;91.50;;;;;;5092043;28;20506;-83
2022/09/11 12:20:39;;;;;;;2.33;0.95;;;24.20;92.40;;;;;;5058013;28;20051;-82
2022/09/11 12:23:26;;;;;;;3.00;1.10;;;24.20;92.20;;;;;;5053761;28;20048;-84
2022/09/11 12:26:03;;;;;;;3.75;0.90;;;24.20;91.30;;;;;;5036853;28;20052;-83
2022/09/11 12:28:28;;;;;;;2.42;1.30;;;24.00;92.00;;;;;;5074142;28;20051;-82
2022/09/11 12:31:11;;;;;;;4.32;1.38;;;24.00;92.30;;;;;;5074486;28;20040;-83
2022/09/11 12:33:40;;;;;;;3.20;1.40;;;24.10;92.60;;;;;;5057782;28;20422;-82
2022/09/11 12:36:12;;;;;;;2.20;1.30;;;24.10;92.30;;;;;;5074222;28;20032;-83
2022/09/11 12:38:45;;;;;;;1.15;0.68;;;24.10;92.80;;;;;;5074413;28;20046;-83
2022/09/11 12:41:26;;;;;;;2.42;1.00;;;24.30;92.30;;;;;;5056224;28;20048;-82
2022/09/11 12:43:54;;;;;;;2.97;1.00;;;24.30;91.20;;;;;;5093925;28;20044;-83
2022/09/11 12:46:19;;;;;;;3.03;1.30;;;24.20;90.60;;;;;;5095989;28;20044;-83
2022/09/11 12:48:53;;;;;;;3.47;1.40;;;24.20;91.70;;;;;;5067539;28;20139;-80
2022/09/11 12:51:37;;;;;;;4.63;1.50;;;24.10;92.10;;;;;;5057957;28;20079;-80
2022/09/11 12:54:14;;;;;;;1.50;0.80;;;24.10;92.50;;;;;;5075392;28;20091;-79
2022/09/11 12:56:46;;;;;;;3.30;1.33;;;24.10;92.60;;;;;;5075447;28;20036;-81
2022/09/11 12:59:37;;;;;;;2.78;1.30;;;24.10;92.80;;;;;;5057760;28;20048;-81